Time;durP1;ratioP1;P1;durP2;ratioP2;P2;SDS_P1;SDS_P2;PMS_P1;PMS_P2;Temp;Humidity;BMP_temperature;BMP_pressure;BME280_temperature;BME280_humidity;BME280_pressure;Samples;Min_cycle;Max_cycle;Signal;HPM_P1;HPM_P2
2023/10/26 00:01:54;;;;;;;;;;;17.90;94.60;;;;;;6068180;23;19917;-73
2023/10/26 00:04:19;;;;;;;;;;;18.00;94.70;;;;;;6068176;23;20270;-72
2023/10/26 00:06:45;;;;;;;;;;;17.90;94.60;;;;;;6042628;23;19901;-72
2023/10/26 00:09:10;;;;;;;;;;;17.90;94.70;;;;;;6067911;23;19955;-72
2023/10/26 00:11:36;;;;;;;;;;;18.00;94.70;;;;;;6067839;23;20286;-73
2023/10/26 00:14:02;;;;;;;;;;;17.90;94.70;;;;;;6068023;23;19910;-72
2023/10/26 00:16:27;;;;;;;;;;;18.00;94.50;;;;;;6067855;23;19901;-72
2023/10/26 00:18:53;;;;;;;;;;;18.30;94.80;;;;;;6067750;23;19980;-72
2023/10/26 00:21:18;;;;;;;;;;;17.90;94.60;;;;;;6067802;23;19902;-72
2023/10/26 00:23:44;;;;;;;;;;;18.00;94.70;;;;;;6068261;23;19905;-73
2023/10/26 00:26:10;;;;;;;;;;;18.00;94.60;;;;;;6068416;23;19941;-73
2023/10/26 00:28:35;;;;;;;;;;;17.90;94.60;;;;;;6067730;23;19905;-73
2023/10/26 00:31:01;;;;;;;;;;;18.10;94.50;;;;;;6068194;23;20313;-80
2023/10/26 00:33:26;;;;;;;;;;;17.90;94.60;;;;;;6067492;23;20227;-79
2023/10/26 00:35:52;;;;;;;;;;;18.00;94.60;;;;;;6067581;23;19908;-80
2023/10/26 00:38:18;;;;;;;;;;;18.00;94.60;;;;;;6067845;23;20318;-80
2023/10/26 00:40:44;;;;;;;;;;;17.90;94.50;;;;;;6067682;23;19906;-79
2023/10/26 00:43:18;;;;;;;;;;;17.90;94.60;;;;;;6067626;23;19903;-79
2023/10/26 00:45:44;;;;;;;;;;;18.00;94.60;;;;;;6067642;23;19912;-79
2023/10/26 00:48:09;;;;;;;;;;;18.00;94.60;;;;;;6067533;23;20025;-79
2023/10/26 00:50:35;;;;;;;;;;;18.00;94.60;;;;;;6067600;23;20358;-80
2023/10/26 00:53:00;;;;;;;;;;;18.00;94.60;;;;;;6067379;23;19905;-80
2023/10/26 00:55:26;;;;;;;;;;;18.00;94.50;;;;;;6067586;23;19906;-80
2023/10/26 00:57:52;;;;;;;;;;;18.00;94.50;;;;;;6067453;23;20071;-79
2023/10/26 01:00:17;;;;;;;;;;;18.00;94.50;;;;;;6067667;23;19901;-80
2023/10/26 01:02:43;;;;;;;;;;;18.00;94.30;;;;;;6067250;23;19913;-79
2023/10/26 01:05:09;;;;;;;;;;;18.00;94.60;;;;;;6067515;23;19950;-79
2023/10/26 01:07:34;;;;;;;;;;;17.90;94.50;;;;;;6067448;23;19905;-79
2023/10/26 01:10:00;;;;;;;;;;;17.90;94.40;;;;;;6067389;23;20237;-79
2023/10/26 01:12:26;;;;;;;;;;;17.90;94.40;;;;;;6067454;23;19955;-79
2023/10/26 01:14:51;;;;;;;;;;;18.00;94.50;;;;;;6067077;23;19909;-79
2023/10/26 01:17:17;;;;;;;;;;;18.00;94.40;;;;;;6067939;23;19902;-72
2023/10/26 01:19:45;;;;;;;;;;;17.90;94.50;;;;;;6067490;23;20228;-73
2023/10/26 01:22:11;;;;;;;;;;;17.90;94.50;;;;;;6067332;23;19908;-73
2023/10/26 01:24:36;;;;;;;;;;;18.00;94.40;;;;;;6067407;23;19901;-72
2023/10/26 01:27:02;;;;;;;;;;;18.00;94.40;;;;;;6067878;23;19988;-73
2023/10/26 01:29:28;;;;;;;;;;;17.90;94.30;;;;;;6067646;23;20314;-73
2023/10/26 01:31:54;;;;;;;;;;;18.00;94.40;;;;;;6067979;23;19924;-73
2023/10/26 01:34:19;;;;;;;;;;;18.00;94.40;;;;;;6067148;23;20134;-73
2023/10/26 01:36:45;;;;;;;;;;;17.90;94.20;;;;;;6067273;23;19908;-72
2023/10/26 01:39:12;;;;;;;;;;;17.90;94.40;;;;;;6067282;23;19991;-73
2023/10/26 01:41:37;;;;;;;;;;;18.00;94.40;;;;;;6067261;23;20340;-72
2023/10/26 01:44:03;;;;;;;;;;;17.90;94.40;;;;;;6067084;23;19902;-72
2023/10/26 01:46:28;;;;;;;;;;;17.90;94.30;;;;;;6067641;23;19902;-72
2023/10/26 01:48:54;;;;;;;;;;;17.90;94.30;;;;;;6067084;23;19906;-71
2023/10/26 01:51:20;;;;;;;;;;;17.90;94.60;;;;;;6067637;23;20334;-71
2023/10/26 01:53:45;;;;;;;;;;;18.00;94.30;;;;;;6066998;23;19916;-74
2023/10/26 01:56:11;;;;;;;;;;;18.00;94.40;;;;;;6067036;23;19902;-71
2023/10/26 01:58:36;;;;;;;;;;;18.00;94.30;;;;;;6067113;23;19902;-72
2023/10/26 02:01:02;;;;;;;;;;;17.90;94.10;;;;;;6067226;23;20045;-71
2023/10/26 02:03:27;;;;;;;;;;;18.00;94.20;;;;;;6066888;23;19913;-71
2023/10/26 02:05:53;;;;;;;;;;;17.90;94.30;;;;;;6067185;23;19909;-71
2023/10/26 02:08:18;;;;;;;;;;;17.90;94.20;;;;;;6067057;23;20237;-73
2023/10/26 02:10:44;;;;;;;;;;;17.90;94.20;;;;;;6067260;23;19912;-73
2023/10/26 02:13:10;;;;;;;;;;;18.20;94.20;;;;;;6067062;23;19956;-71
2023/10/26 02:15:35;;;;;;;;;;;18.00;94.30;;;;;;6067943;23;20361;-78
2023/10/26 02:18:01;;;;;;;;;;;17.90;94.20;;;;;;6067048;23;19926;-78
2023/10/26 02:20:26;;;;;;;;;;;17.90;94.30;;;;;;6067034;23;19901;-79
2023/10/26 02:22:52;;;;;;;;;;;17.90;94.30;;;;;;6066989;23;19902;-79
2023/10/26 02:25:19;;;;;;;;;;;17.90;94.20;;;;;;6067045;23;19924;-79
2023/10/26 02:27:45;;;;;;;;;;;17.90;94.30;;;;;;6068478;23;19928;-72
2023/10/26 02:30:10;;;;;;;;;;;17.90;94.10;;;;;;6068689;23;20317;-73
2023/10/26 02:32:36;;;;;;;;;;;17.90;93.60;;;;;;6068655;23;19908;-72
2023/10/26 02:35:01;;;;;;;;;;;17.90;94.20;;;;;;6068591;23;19910;-72
2023/10/26 02:37:27;;;;;;;;;;;17.90;94.10;;;;;;6068588;23;19901;-72
2023/10/26 02:39:52;;;;;;;;;;;17.90;94.10;;;;;;6068722;23;20304;-73
2023/10/26 02:42:18;;;;;;;;;;;17.90;94.20;;;;;;6069043;23;19908;-79
2023/10/26 02:44:44;;;;;;;;;;;17.90;94.10;;;;;;6068590;23;19931;-78
2023/10/26 02:47:09;;;;;;;;;;;17.90;94.10;;;;;;6068574;23;19906;-78
2023/10/26 02:49:35;;;;;;;;;;;17.80;94.10;;;;;;6068574;23;20219;-78
2023/10/26 02:52:00;;;;;;;;;;;17.80;94.00;;;;;;6068623;23;19973;-80
2023/10/26 02:54:27;;;;;;;;;;;17.80;94.10;;;;;;6069205;23;19909;-71
2023/10/26 02:56:52;;;;;;;;;;;17.90;94.10;;;;;;6068589;23;19905;-72
2023/10/26 02:59:18;;;;;;;;;;;17.90;94.20;;;;;;6069032;23;19901;-72
2023/10/26 03:01:43;;;;;;;;;;;18.00;94.00;;;;;;6068090;23;19952;-72
2023/10/26 03:04:09;;;;;;;;;;;17.80;94.00;;;;;;6068396;23;19905;-72
2023/10/26 03:06:37;;;;;;;;;;;17.80;93.90;;;;;;6068285;23;20310;-72
2023/10/26 03:09:04;;;;;;;;;;;17.90;91.90;;;;;;6068299;23;19901;-72
2023/10/26 03:11:30;;;;;;;;;;;18.10;94.10;;;;;;6068747;23;20321;-78
2023/10/26 03:13:55;;;;;;;;;;;17.80;94.10;;;;;;6068327;23;19916;-78
2023/10/26 03:16:21;;;;;;;;;;;17.80;94.30;;;;;;6068897;23;19901;-78
2023/10/26 03:18:46;;;;;;;;;;;17.90;94.10;;;;;;6068145;23;19901;-79
2023/10/26 03:21:14;;;;;;;;;;;17.80;94.00;;;;;;6068434;23;19945;-79
2023/10/26 03:23:39;;;;;;;;;;;17.60;94.00;;;;;;6068704;23;19901;-72
2023/10/26 03:26:11;;;;;;;;;;;17.80;94.20;;;;;;6068898;23;19980;-73
2023/10/26 03:28:36;;;;;;;;;;;17.90;92.10;;;;;;6068002;23;19984;-72
2023/10/26 03:31:02;;;;;;;;;;;17.70;94.20;;;;;;6068228;23;19908;-72
2023/10/26 03:33:27;;;;;;;;;;;17.80;94.00;;;;;;6068608;23;20335;-72
2023/10/26 03:35:53;;;;;;;;;;;17.80;94.20;;;;;;6068116;23;19940;-72
2023/10/26 03:38:18;;;;;;;;;;;17.80;94.10;;;;;;6067949;23;19956;-72
2023/10/26 03:40:44;;;;;;;;;;;17.70;94.20;;;;;;6068509;23;19964;-79
2023/10/26 03:43:09;;;;;;;;;;;17.70;94.00;;;;;;6068048;23;19902;-79
2023/10/26 03:45:35;;;;;;;;;;;17.70;94.10;;;;;;6067871;23;19901;-79
2023/10/26 03:48:00;;;;;;;;;;;17.70;94.10;;;;;;6067817;23;19905;-79
2023/10/26 03:50:26;;;;;;;;;;;17.80;94.30;;;;;;6067926;23;19902;-80
2023/10/26 03:52:51;;;;;;;;;;;17.80;94.20;;;;;;6068104;23;20322;-80
2023/10/26 03:55:17;;;;;;;;;;;17.70;94.20;;;;;;6067910;23;19910;-81
2023/10/26 03:57:44;;;;;;;;;;;17.70;94.20;;;;;;6067853;23;19980;-80
2023/10/26 04:00:10;;;;;;;;;;;17.80;94.20;;;;;;6068481;23;19908;-81
2023/10/26 04:02:35;;;;;;;;;;;17.60;94.10;;;;;;6067443;23;19914;-80
2023/10/26 04:05:02;;;;;;;;;;;17.60;94.20;;;;;;6068400;23;19902;-80
2023/10/26 04:07:28;;;;;;;;;;;17.70;94.40;;;;;;6067948;23;19929;-79
2023/10/26 04:09:53;;;;;;;;;;;17.70;94.30;;;;;;6069216;23;19901;-78
2023/10/26 04:12:19;;;;;;;;;;;17.70;94.30;;;;;;6068392;23;20210;-80
2023/10/26 04:14:45;;;;;;;;;;;17.60;94.40;;;;;;6067783;23;20317;-78
2023/10/26 04:17:12;;;;;;;;;;;17.60;94.40;;;;;;6068024;23;19909;-80
2023/10/26 04:19:38;;;;;;;;;;;17.70;94.50;;;;;;6068268;23;19901;-71
2023/10/26 04:22:05;;;;;;;;;;;17.60;94.50;;;;;;6068352;23;20080;-74
2023/10/26 04:24:32;;;;;;;;;;;17.70;94.40;;;;;;6068260;23;20229;-74
2023/10/26 04:26:59;;;;;;;;;;;17.70;94.50;;;;;;6067770;23;19902;-73
2023/10/26 04:29:25;;;;;;;;;;;17.70;94.60;;;;;;6067848;23;19924;-73
2023/10/26 04:31:50;;;;;;;;;;;17.60;94.40;;;;;;6067523;23;19902;-73
2023/10/26 04:34:16;;;;;;;;;;;17.60;94.60;;;;;;6068052;23;19916;-73
2023/10/26 04:36:41;;;;;;;;;;;17.80;94.70;;;;;;6068023;23;19957;-79
2023/10/26 04:39:09;;;;;;;;;;;17.60;94.60;;;;;;6067477;23;19938;-79
2023/10/26 04:41:35;;;;;;;;;;;17.70;94.60;;;;;;6067641;23;19933;-79
2023/10/26 04:44:01;;;;;;;;;;;17.70;94.60;;;;;;6067669;23;19902;-79
2023/10/26 04:46:27;;;;;;;;;;;17.60;94.50;;;;;;6067596;23;19902;-79
2023/10/26 04:48:52;;;;;;;;;;;17.60;94.50;;;;;;6067141;23;19902;-73
2023/10/26 04:51:18;;;;;;;;;;;17.70;94.60;;;;;;6067597;23;20303;-72
2023/10/26 04:53:43;;;;;;;;;;;17.60;94.40;;;;;;6067304;23;19906;-72
2023/10/26 04:56:11;;;;;;;;;;;17.60;94.70;;;;;;6068067;23;19908;-73
2023/10/26 04:58:38;;;;;;;;;;;17.70;94.70;;;;;;6067520;23;19902;-72
2023/10/26 05:01:04;;;;;;;;;;;;;;;;;;6067794;23;19936;-73
2023/10/26 05:03:30;;;;;;;;;;;17.60;94.10;;;;;;6067651;23;20314;-73
2023/10/26 05:05:56;;;;;;;;;;;17.70;94.80;;;;;;6068432;23;19908;-73
2023/10/26 05:08:22;;;;;;;;;;;17.90;94.90;;;;;;6067346;23;19901;-73
2023/10/26 05:10:47;;;;;;;;;;;17.60;94.70;;;;;;6068004;23;19913;-73
2023/10/26 05:13:13;;;;;;;;;;;17.70;94.90;;;;;;6067210;23;20326;-73
2023/10/26 05:15:38;;;;;;;;;;;17.70;94.80;;;;;;6067358;23;19938;-73
2023/10/26 05:18:04;;;;;;;;;;;17.70;94.80;;;;;;6067275;23;20239;-73
2023/10/26 05:20:30;;;;;;;;;;;17.20;94.50;;;;;;6067275;23;20118;-73
2023/10/26 05:22:56;;;;;;;;;;;17.60;94.70;;;;;;6067124;23;19901;-73
2023/10/26 05:25:21;;;;;;;;;;;17.70;94.80;;;;;;6067230;23;19909;-73
2023/10/26 05:27:47;;;;;;;;;;;17.70;94.90;;;;;;6067224;23;19980;-73
2023/10/26 05:30:12;;;;;;;;;;;17.80;94.80;;;;;;6067095;23;19933;-73
2023/10/26 05:32:39;;;;;;;;;;;17.70;94.80;;;;;;6067150;23;19957;-73
2023/10/26 05:35:05;;;;;;;;;;;17.70;94.80;;;;;;6067001;23;19945;-81
2023/10/26 05:37:31;;;;;;;;;;;17.70;94.60;;;;;;6041748;23;19975;-74
2023/10/26 05:39:56;;;;;;;;;;;17.70;95.10;;;;;;6067100;23;19905;-73
2023/10/26 05:42:22;;;;;;;;;;;17.70;94.90;;;;;;6067116;23;19940;-73
2023/10/26 05:44:47;;;;;;;;;;;17.80;94.90;;;;;;6067166;23;19902;-73
2023/10/26 05:47:13;;;;;;;;;;;17.80;94.90;;;;;;6067030;23;19909;-74
2023/10/26 05:49:38;;;;;;;;;;;17.80;94.90;;;;;;6067220;23;19902;-73
2023/10/26 05:52:04;;;;;;;;;;;17.80;94.80;;;;;;6066970;23;20324;-73
2023/10/26 05:54:29;;;;;;;;;;;17.80;94.30;;;;;;6067713;23;19941;-73
2023/10/26 05:56:55;;;;;;;;;;;17.80;94.60;;;;;;6067034;23;19902;-76
2023/10/26 05:59:21;;;;;;;;;;;17.80;94.70;;;;;;6066981;23;19929;-73
2023/10/26 06:01:47;;;;;;;;;;;17.70;94.60;;;;;;6068684;23;20310;-73
2023/10/26 06:04:13;;;;;;;;;;;17.80;94.80;;;;;;6078640;23;19912;-75
2023/10/26 06:06:39;;;;;;;;;;;17.80;94.80;;;;;;6069270;23;19901;-77
2023/10/26 06:09:05;;;;;;;;;;;17.80;94.80;;;;;;6069425;23;19990;-74
2023/10/26 06:11:30;;;;;;;;;;;17.80;94.40;;;;;;6069557;23;20230;-78
2023/10/26 06:13:56;;;;;;;;;;;17.80;94.80;;;;;;6068726;23;19949;-74
2023/10/26 06:16:21;;;;;;;;;;;17.80;94.70;;;;;;6069372;23;19959;-75
2023/10/26 06:18:47;;;;;;;;;;;17.90;94.90;;;;;;6069358;23;20282;-74
2023/10/26 06:21:13;;;;;;;;;;;17.90;95.10;;;;;;6068701;23;20381;-75
2023/10/26 06:23:38;;;;;;;;;;;17.80;94.70;;;;;;6068956;23;19937;-73
2023/10/26 06:26:04;;;;;;;;;;;17.90;94.80;;;;;;6069286;23;20018;-75
2023/10/26 06:28:30;;;;;;;;;;;17.80;94.50;;;;;;6069295;23;19901;-75
2023/10/26 06:31:07;;;;;;;;;;;17.80;94.70;;;;;;6068862;23;20341;-73
2023/10/26 06:33:32;;;;;;;;;;;17.80;94.70;;;;;;6068680;23;19910;-75
2023/10/26 06:35:59;;;;;;;;;;;17.90;94.80;;;;;;6068697;23;19908;-75
2023/10/26 06:38:28;;;;;;;;;;;;;;;;;;6068848;23;19902;-73
2023/10/26 06:40:54;;;;;;;;;;;17.70;92.20;;;;;;6068679;23;19901;-75
2023/10/26 06:43:20;;;;;;;;;;;17.80;94.50;;;;;;6068634;23;19901;-78
2023/10/26 06:45:45;;;;;;;;;;;17.80;94.50;;;;;;6043092;23;20376;-71
2023/10/26 06:48:11;;;;;;;;;;;17.80;94.80;;;;;;6068633;23;19980;-74
2023/10/26 06:50:37;;;;;;;;;;;17.70;94.50;;;;;;6068570;23;19909;-76
2023/10/26 06:53:02;;;;;;;;;;;17.80;94.50;;;;;;6068695;23;19909;-72
2023/10/26 06:55:32;;;;;;;;;;;17.80;94.60;;;;;;6068441;23;19940;-72
2023/10/26 06:57:57;;;;;;;;;;;17.80;92.30;;;;;;6068440;23;19905;-73
2023/10/26 07:00:23;;;;;;;;;;;17.70;94.40;;;;;;6069000;23;19956;-76
2023/10/26 07:02:48;;;;;;;;;;;17.80;94.40;;;;;;6068150;23;19913;-76
2023/10/26 07:05:14;;;;;;;;;;;17.90;94.70;;;;;;6068476;23;19902;-74
2023/10/26 07:07:39;;;;;;;;;;;17.70;94.40;;;;;;6068289;23;20300;-74
2023/10/26 07:10:05;;;;;;;;;;;17.80;94.70;;;;;;6068714;23;19969;-84
2023/10/26 07:12:30;;;;;;;;;;;17.80;93.90;;;;;;6068318;23;19925;-84
2023/10/26 07:14:57;;;;;;;;;;;17.80;94.70;;;;;;6068785;23;19953;-83
2023/10/26 07:17:23;;;;;;;;;;;17.70;94.10;;;;;;6069241;23;19908;-81
2023/10/26 07:19:52;;;;;;;;;;;17.90;94.70;;;;;;6068648;23;20280;-78
2023/10/26 07:22:17;;;;;;;;;;;17.80;92.20;;;;;;6068383;23;19913;-81
2023/10/26 07:24:43;;;;;;;;;;;17.80;94.60;;;;;;6068236;23;19902;-84
2023/10/26 07:27:09;;;;;;;;;;;17.80;94.50;;;;;;6068976;23;19901;-82
2023/10/26 07:29:34;;;;;;;;;;;17.70;94.30;;;;;;6068217;23;19928;-81
2023/10/26 07:32:00;;;;;;;;;;;17.80;94.60;;;;;;6068194;23;19929;-78
2023/10/26 07:34:25;;;;;;;;;;;17.80;94.30;;;;;;6067924;23;19909;-82
2023/10/26 07:36:51;;;;;;;;;;;17.80;94.60;;;;;;6068621;23;19976;-71
2023/10/26 07:39:17;;;;;;;;;;;17.70;94.40;;;;;;6068634;23;19997;-73
2023/10/26 07:41:43;;;;;;;;;;;17.70;94.40;;;;;;6068106;23;19965;-73
2023/10/26 07:44:09;;;;;;;;;;;17.70;94.40;;;;;;6068163;23;20310;-74
2023/10/26 07:46:35;;;;;;;;;;;17.80;94.60;;;;;;6068055;23;19980;-73
2023/10/26 07:49:02;;;;;;;;;;;17.80;94.60;;;;;;6068581;23;19925;-73
2023/10/26 07:51:27;;;;;;;;;;;17.80;94.70;;;;;;6068500;23;19902;-74
2023/10/26 07:53:53;;;;;;;;;;;17.70;94.40;;;;;;6068638;23;19910;-80
2023/10/26 07:56:19;;;;;;;;;;;17.70;94.50;;;;;;6067736;23;20234;-81
2023/10/26 07:58:44;;;;;;;;;;;17.70;94.50;;;;;;6067453;23;20348;-81
2023/10/26 08:01:10;;;;;;;;;;;17.80;94.40;;;;;;6067751;23;19905;-81
2023/10/26 08:03:36;;;;;;;;;;;17.70;94.40;;;;;;6064831;23;19914;-80
2023/10/26 08:06:02;;;;;;;;;;;17.80;94.50;;;;;;6068106;23;20312;-73
2023/10/26 08:08:28;;;;;;;;;;;17.70;94.40;;;;;;6067807;23;19901;-73
2023/10/26 08:10:54;;;;;;;;;;;17.80;94.70;;;;;;6077447;23;19901;-72
2023/10/26 08:13:20;;;;;;;;;;;17.80;94.60;;;;;;6067767;23;20365;-73
2023/10/26 08:15:46;;;;;;;;;;;17.80;94.50;;;;;;6069784;23;19933;-88
2023/10/26 08:18:12;;;;;;;;;;;17.80;94.50;;;;;;6070305;23;19909;-73
2023/10/26 08:20:38;;;;;;;;;;;17.80;94.50;;;;;;6068288;23;19902;-73
2023/10/26 08:23:04;;;;;;;;;;;17.80;94.50;;;;;;6068316;23;20318;-73
2023/10/26 08:25:36;;;;;;;;;;;17.80;94.60;;;;;;6068020;23;19929;-73
2023/10/26 08:28:02;;;;;;;;;;;17.80;92.40;;;;;;6067752;23;19902;-72
2023/10/26 08:30:27;;;;;;;;;;;17.70;94.50;;;;;;6067782;23;19901;-73
2023/10/26 08:32:56;;;;;;;;;;;17.80;94.50;;;;;;6068253;23;20365;-73
2023/10/26 08:35:22;;;;;;;;;;;17.80;94.60;;;;;;6067781;23;19920;-75
2023/10/26 08:37:49;;;;;;;;;;;17.90;94.80;;;;;;6068269;23;19902;-74
2023/10/26 08:40:15;;;;;;;;;;;17.80;94.80;;;;;;6068188;23;20218;-73
2023/10/26 08:42:43;;;;;;;;;;;17.90;94.80;;;;;;6067796;23;20317;-76
2023/10/26 08:45:19;;;;;;;;;;;17.90;94.80;;;;;;6067758;23;20335;-73
2023/10/26 08:47:47;;;;;;;;;;;17.90;92.50;;;;;;6077096;23;20050;-73
2023/10/26 08:50:13;;;;;;;;;;;17.80;95.20;;;;;;6077210;23;19958;-73
2023/10/26 08:52:40;;;;;;;;;;;18.00;94.40;;;;;;6068087;23;20314;-75
2023/10/26 08:55:06;;;;;;;;;;;17.80;94.90;;;;;;6067760;23;19909;-79
2023/10/26 08:57:32;;;;;;;;;;;17.90;94.50;;;;;;6067928;23;19901;-75
2023/10/26 08:59:59;;;;;;;;;;;18.00;94.90;;;;;;6067564;23;19908;-77
2023/10/26 09:02:24;;;;;;;;;;;17.90;94.80;;;;;;6067320;23;19917;-72
2023/10/26 09:04:59;;;;;;;;;;;18.00;94.90;;;;;;6067615;23;19940;-73
2023/10/26 09:07:26;;;;;;;;;;;18.00;92.70;;;;;;6067865;23;19906;-73
2023/10/26 09:09:51;;;;;;;;;;;18.00;95.00;;;;;;6067480;23;19902;-72
2023/10/26 09:12:16;;;;;;;;;;;17.90;95.00;;;;;;6067421;23;20033;-72
2023/10/26 09:14:56;;;;;;;;;;;18.00;94.90;;;;;;6067310;23;19933;-71
2023/10/26 09:17:25;;;;;;;;;;;18.00;95.00;;;;;;6067541;23;20297;-71
2023/10/26 09:19:50;;;;;;;;;;;18.20;94.80;;;;;;6068134;23;19907;-73
2023/10/26 09:22:16;;;;;;;;;;;18.00;94.90;;;;;;6041882;23;19973;-73
2023/10/26 09:24:41;;;;;;;;;;;18.10;95.00;;;;;;6067361;23;19902;-72
2023/10/26 09:27:16;;;;;;;;;;;18.20;94.80;;;;;;6067279;23;19958;-72
2023/10/26 09:29:42;;;;;;;;;;;18.10;95.00;;;;;;6077059;23;20029;-74
2023/10/26 09:32:08;;;;;;;;;;;18.10;94.90;;;;;;6067393;23;19902;-74
2023/10/26 09:34:41;;;;;;;;;;;18.00;94.90;;;;;;6067885;23;19909;-73
2023/10/26 09:37:08;;;;;;;;;;;18.20;92.60;;;;;;6079237;23;20297;-74
2023/10/26 09:39:35;;;;;;;;;;;18.30;94.90;;;;;;6069690;23;19908;-74
2023/10/26 09:42:02;;;;;;;;;;;18.20;94.90;;;;;;6069306;23;19902;-73
2023/10/26 09:44:28;;;;;;;;;;;18.20;94.90;;;;;;6069339;23;20322;-73
2023/10/26 09:46:54;;;;;;;;;;;18.20;94.90;;;;;;6069369;23;19929;-73
2023/10/26 09:49:23;;;;;;;;;;;17.90;94.80;;;;;;6069342;23;20334;-77
2023/10/26 09:51:49;;;;;;;;;;;18.20;92.40;;;;;;6069823;23;19902;-73
2023/10/26 09:54:16;;;;;;;;;;;18.20;94.80;;;;;;6069628;23;20349;-74
2023/10/26 09:56:45;;;;;;;;;;;18.30;94.80;;;;;;6069199;23;19938;-74
2023/10/26 09:59:11;;;;;;;;;;;18.20;94.90;;;;;;6069250;23;20241;-80
2023/10/26 10:01:37;;;;;;;;;;;18.20;94.70;;;;;;6068895;23;19901;-73
2023/10/26 10:04:06;;;;;;;;;;;18.30;94.90;;;;;;6078542;23;20337;-73
2023/10/26 10:06:51;;;;;;;;;;;18.20;94.90;;;;;;6079291;23;20256;-73
2023/10/26 10:09:19;;;;;;;;;;;18.20;92.60;;;;;;6078587;23;19936;-72
2023/10/26 10:11:46;;;;;;;;;;;18.20;94.90;;;;;;6078540;23;19937;-73
2023/10/26 10:14:30;;;;;;;;;;;18.20;95.00;;;;;;6078423;23;20048;-73
2023/10/26 10:16:56;;;;;;;;;;;18.20;92.60;;;;;;6078553;23;20359;-73
2023/10/26 10:19:26;;;;;;;;;;;18.40;95.00;;;;;;6078768;23;19901;-85
2023/10/26 10:21:52;;;;;;;;;;;18.50;95.20;;;;;;6078811;23;19902;-84
2023/10/26 10:24:36;;;;;;;;;;;18.30;95.10;;;;;;6078688;23;19909;-84
2023/10/26 10:27:08;;;;;;;;;;;18.20;92.70;;;;;;6078603;23;19901;-81
2023/10/26 10:29:33;;;;;;;;;;;18.20;92.80;;;;;;6079000;23;20322;-80
2023/10/26 10:31:58;;;;;;;;;;;18.30;95.00;;;;;;6078424;23;19901;-85
2023/10/26 10:34:27;;;;;;;;;;;18.30;95.00;;;;;;6078450;23;19956;-79
2023/10/26 10:37:11;;;;;;;;;;;18.20;94.80;;;;;;6079044;23;19912;-71
2023/10/26 10:39:37;;;;;;;;;;;18.40;92.70;;;;;;6078427;23;19924;-72
2023/10/26 10:42:07;;;;;;;;;;;18.20;95.30;;;;;;6078418;23;20214;-72
2023/10/26 10:44:35;;;;;;;;;;;18.40;94.90;;;;;;6078664;23;19908;-71
2023/10/26 10:47:00;;;;;;;;;;;18.20;95.00;;;;;;6068490;23;19906;-79
2023/10/26 10:49:26;;;;;;;;;;;18.30;94.90;;;;;;6069129;23;20380;-80
2023/10/26 10:51:53;;;;;;;;;;;18.30;94.90;;;;;;6069318;23;19908;-77
2023/10/26 10:54:21;;;;;;;;;;;18.20;94.80;;;;;;6068844;23;20000;-79
2023/10/26 10:56:48;;;;;;;;;;;18.30;94.90;;;;;;6068816;23;19980;-80
2023/10/26 10:59:19;;;;;;;;;;;18.30;94.90;;;;;;6068724;23;19902;-78
2023/10/26 11:01:46;;;;;;;;;;;18.30;94.80;;;;;;6068679;23;19913;-81
2023/10/26 11:04:14;;;;;;;;;;;18.30;95.00;;;;;;6078845;23;19969;-81
2023/10/26 11:06:45;;;;;;;;;;;18.30;93.10;;;;;;6068719;23;20215;-80
2023/10/26 11:09:26;;;;;;;;;;;18.30;92.50;;;;;;6068850;23;19907;-79
2023/10/26 11:11:52;;;;;;;;;;;18.30;92.60;;;;;;6069023;23;20341;-80
2023/10/26 11:14:20;;;;;;;;;;;19.40;95.20;;;;;;6068700;23;19916;-80
2023/10/26 11:16:47;;;;;;;;;;;18.30;94.60;;;;;;6069030;23;19913;-71
2023/10/26 11:19:13;;;;;;;;;;;18.40;94.80;;;;;;6069034;23;19908;-72
2023/10/26 11:21:39;;;;;;;;;;;18.40;94.60;;;;;;6068997;23;19901;-72
2023/10/26 11:24:06;;;;;;;;;;;18.40;94.70;;;;;;6068630;23;19905;-72
2023/10/26 11:26:31;;;;;;;;;;;18.40;94.10;;;;;;6068918;23;19924;-72
2023/10/26 11:29:00;;;;;;;;;;;18.40;94.60;;;;;;6068663;23;20211;-72
2023/10/26 11:31:35;;;;;;;;;;;18.40;94.50;;;;;;6068880;23;19938;-72
2023/10/26 11:34:06;;;;;;;;;;;18.40;92.30;;;;;;6068563;23;20348;-72
2023/10/26 11:36:32;;;;;;;;;;;18.50;92.40;;;;;;6068311;23;19902;-72
2023/10/26 11:38:58;;;;;;;;;;;18.50;94.60;;;;;;6068442;23;19968;-72
2023/10/26 11:41:24;;;;;;;;;;;18.40;94.60;;;;;;6068791;23;19902;-72
2023/10/26 11:43:50;;;;;;;;;;;18.50;94.80;;;;;;6068713;23;19901;-72
2023/10/26 11:46:35;;;;;;;;;;;18.50;94.60;;;;;;6068456;23;20322;-72
2023/10/26 11:49:02;;;;;;;;;;;18.50;92.40;;;;;;6068799;23;19902;-72
2023/10/26 11:51:29;;;;;;;;;;;18.50;94.80;;;;;;6068237;23;19909;-79
2023/10/26 11:53:55;;;;;;;;;;;18.40;94.60;;;;;;6068275;23;19921;-72
2023/10/26 11:56:21;;;;;;;;;;;18.40;94.70;;;;;;6068612;23;19909;-72
2023/10/26 11:58:47;;;;;;;;;;;18.50;94.80;;;;;;6068156;23;19906;-72
2023/10/26 12:01:13;;;;;;;;;;;18.40;94.60;;;;;;6068238;23;19901;-73
2023/10/26 12:03:43;;;;;;;;;;;18.40;94.80;;;;;;6067857;23;19997;-71
2023/10/26 12:06:11;;;;;;;;;;;18.50;92.50;;;;;;6068228;23;19906;-74
2023/10/26 12:08:37;;;;;;;;;;;18.30;94.70;;;;;;6067930;23;19972;-72
2023/10/26 12:11:04;;;;;;;;;;;18.40;94.90;;;;;;6068498;23;19931;-80
2023/10/26 12:13:33;;;;;;;;;;;19.80;95.10;;;;;;6068195;23;20340;-80
2023/10/26 12:15:59;;;;;;;;;;;18.40;92.50;;;;;;6068501;23;19941;-80
2023/10/26 12:18:26;;;;;;;;;;;18.40;94.70;;;;;;6068075;23;19906;-79
2023/10/26 12:20:52;;;;;;;;;;;18.40;94.70;;;;;;6068244;23;20207;-81
2023/10/26 12:23:18;;;;;;;;;;;18.50;94.80;;;;;;6068388;23;19909;-80
2023/10/26 12:25:44;;;;;;;;;;;18.40;94.80;;;;;;6067971;23;20245;-78
2023/10/26 12:28:10;;;;;;;;;;;18.40;94.80;;;;;;6068756;23;19909;-79
2023/10/26 12:30:36;;;;;;;;;;;18.40;94.70;;;;;;6068435;23;19909;-81
2023/10/26 12:33:02;;;;;;;;;;;18.50;94.80;;;;;;6068367;23;19908;-79
2023/10/26 12:35:28;;;;;;;;;;;18.40;94.80;;;;;;6068410;23;19944;-84
2023/10/26 12:37:54;;;;;;;;;;;18.50;94.80;;;;;;6068190;23;19932;-79
2023/10/26 12:40:20;;;;;;;;;;;18.50;94.90;;;;;;6067984;23;20310;-80
2023/10/26 12:42:46;;;;;;;;;;;18.40;94.70;;;;;;6067987;23;19901;-77
2023/10/26 12:45:13;;;;;;;;;;;18.40;94.50;;;;;;6067862;23;19905;-81
2023/10/26 12:47:39;;;;;;;;;;;18.40;94.80;;;;;;6068175;23;19902;-79
2023/10/26 12:50:05;;;;;;;;;;;18.40;94.70;;;;;;6068309;23;19905;-78
2023/10/26 12:52:31;;;;;;;;;;;18.40;94.50;;;;;;6067877;23;19980;-84
2023/10/26 12:54:57;;;;;;;;;;;18.50;94.80;;;;;;6067497;23;19917;-83
2023/10/26 12:57:22;;;;;;;;;;;18.50;94.70;;;;;;6067615;23;19976;-85
2023/10/26 12:59:48;;;;;;;;;;;18.50;94.70;;;;;;6067578;23;19906;-79
2023/10/26 13:02:14;;;;;;;;;;;18.40;94.50;;;;;;6067957;23;19936;-76
2023/10/26 13:04:39;;;;;;;;;;;18.50;94.80;;;;;;6067462;23;19934;-79
2023/10/26 13:07:05;;;;;;;;;;;18.40;94.50;;;;;;6068143;23;19913;-72
2023/10/26 13:09:30;;;;;;;;;;;18.60;94.70;;;;;;6067319;23;19913;-72
2023/10/26 13:11:56;;;;;;;;;;;18.50;94.70;;;;;;6067309;23;20352;-71
2023/10/26 13:14:21;;;;;;;;;;;18.40;94.70;;;;;;6067333;23;19916;-71
2023/10/26 13:16:47;;;;;;;;;;;18.40;94.70;;;;;;6067482;23;19977;-72
2023/10/26 13:19:12;;;;;;;;;;;18.20;94.70;;;;;;6067430;23;19901;-71
2023/10/26 13:21:38;;;;;;;;;;;18.50;94.80;;;;;;6067422;23;19988;-72
2023/10/26 13:24:03;;;;;;;;;;;18.40;94.70;;;;;;6067819;23;19909;-81
2023/10/26 13:26:29;;;;;;;;;;;18.40;94.40;;;;;;6067894;23;19968;-81
2023/10/26 13:28:55;;;;;;;;;;;18.50;94.80;;;;;;6067924;23;20273;-81
2023/10/26 13:31:21;;;;;;;;;;;18.50;94.90;;;;;;6042512;23;20234;-81
2023/10/26 13:33:47;;;;;;;;;;;18.40;94.70;;;;;;6067425;23;19912;-72
2023/10/26 13:36:13;;;;;;;;;;;18.60;94.80;;;;;;6067899;23;19961;-76
2023/10/26 13:38:38;;;;;;;;;;;18.40;94.70;;;;;;6069958;23;19901;-81
2023/10/26 13:41:04;;;;;;;;;;;18.40;94.90;;;;;;6069121;23;19901;-83
2023/10/26 13:43:30;;;;;;;;;;;18.40;95.10;;;;;;6070074;23;19901;-86
2023/10/26 13:45:55;;;;;;;;;;;18.30;94.50;;;;;;6070104;23;19973;-80
2023/10/26 13:48:21;;;;;;;;;;;18.30;94.70;;;;;;6068913;23;19937;-76
2023/10/26 13:50:46;;;;;;;;;;;18.40;94.70;;;;;;6069246;23;19901;-75
2023/10/26 13:53:12;;;;;;;;;;;18.40;94.80;;;;;;6068579;23;19908;-74
2023/10/26 13:55:37;;;;;;;;;;;17.20;94.50;;;;;;6068813;23;19916;-74
2023/10/26 13:58:04;;;;;;;;;;;18.50;94.80;;;;;;6068872;23;20365;-72
2023/10/26 14:00:31;;;;;;;;;;;18.40;94.80;;;;;;6069143;23;19924;-75
2023/10/26 14:02:56;;;;;;;;;;;18.40;94.80;;;;;;6068929;23;19996;-83
2023/10/26 14:05:22;;;;;;;;;;;18.30;94.70;;;;;;6068605;23;19902;-79
2023/10/26 14:07:47;;;;;;;;;;;18.40;94.90;;;;;;6068744;23;20237;-79
2023/10/26 14:10:13;;;;;;;;;;;18.40;94.80;;;;;;6068920;23;19901;-80
2023/10/26 14:12:39;;;;;;;;;;;18.50;94.90;;;;;;6069065;23;19912;-80
2023/10/26 14:15:05;;;;;;;;;;;18.30;94.80;;;;;;6068626;23;20285;-79